sensor_id;sensor_type;location;lat;lon;timestamp;P1;durP1;ratioP1;P2;durP2;ratioP2
26484;SDS011;18083;50.560;7.262;2023-05-23T00:01:04;41.77;;;23.85;;
26484;SDS011;18083;50.560;7.262;2023-05-23T00:03:33;37.58;;;24.25;;
26484;SDS011;18083;50.560;7.262;2023-05-23T00:06:00;33.28;;;22.77;;
26484;SDS011;18083;50.560;7.262;2023-05-23T00:08:29;37.00;;;22.45;;
26484;SDS011;18083;50.560;7.262;2023-05-23T00:10:57;36.23;;;22.62;;
26484;SDS011;18083;50.560;7.262;2023-05-23T00:13:24;37.48;;;23.20;;
26484;SDS011;18083;50.560;7.262;2023-05-23T00:15:52;37.33;;;23.52;;
26484;SDS011;18083;50.560;7.262;2023-05-23T00:18:19;35.68;;;21.80;;
26484;SDS011;18083;50.560;7.262;2023-05-23T00:20:46;30.95;;;20.25;;
26484;SDS011;18083;50.560;7.262;2023-05-23T00:23:13;33.78;;;20.70;;
26484;SDS011;18083;50.560;7.262;2023-05-23T00:25:42;29.95;;;20.30;;
26484;SDS011;18083;50.560;7.262;2023-05-23T00:28:11;30.85;;;19.20;;
26484;SDS011;18083;50.560;7.262;2023-05-23T00:30:39;30.72;;;20.43;;
26484;SDS011;18083;50.560;7.262;2023-05-23T00:33:06;32.93;;;20.40;;
26484;SDS011;18083;50.560;7.262;2023-05-23T00:35:34;34.18;;;21.23;;
26484;SDS011;18083;50.560;7.262;2023-05-23T00:38:01;28.80;;;18.90;;
26484;SDS011;18083;50.560;7.262;2023-05-23T00:40:28;33.18;;;20.10;;
26484;SDS011;18083;50.560;7.262;2023-05-23T00:42:56;32.40;;;19.87;;
26484;SDS011;18083;50.560;7.262;2023-05-23T00:45:23;36.40;;;21.07;;
26484;SDS011;18083;50.560;7.262;2023-05-23T00:47:50;32.75;;;22.17;;
26484;SDS011;18083;50.560;7.262;2023-05-23T00:50:18;46.90;;;24.70;;
26484;SDS011;18083;50.560;7.262;2023-05-23T00:52:46;40.98;;;22.85;;
26484;SDS011;18083;50.560;7.262;2023-05-23T00:55:14;31.62;;;20.80;;
26484;SDS011;18083;50.560;7.262;2023-05-23T00:57:41;34.88;;;21.70;;
26484;SDS011;18083;50.560;7.262;2023-05-23T01:00:12;30.92;;;19.40;;
26484;SDS011;18083;50.560;7.262;2023-05-23T01:02:44;28.20;;;18.85;;
26484;SDS011;18083;50.560;7.262;2023-05-23T01:05:11;29.40;;;17.30;;
26484;SDS011;18083;50.560;7.262;2023-05-23T01:07:40;23.92;;;18.15;;
26484;SDS011;18083;50.560;7.262;2023-05-23T01:10:07;24.43;;;15.80;;
26484;SDS011;18083;50.560;7.262;2023-05-23T01:15:20;24.20;;;14.75;;
26484;SDS011;18083;50.560;7.262;2023-05-23T01:17:58;24.07;;;15.05;;
26484;SDS011;18083;50.560;7.262;2023-05-23T01:20:24;23.05;;;13.45;;
26484;SDS011;18083;50.560;7.262;2023-05-23T01:25:34;16.82;;;12.63;;
26484;SDS011;18083;50.560;7.262;2023-05-23T01:28:00;18.35;;;12.55;;
26484;SDS011;18083;50.560;7.262;2023-05-23T01:30:24;22.00;;;13.05;;
26484;SDS011;18083;50.560;7.262;2023-05-23T01:32:52;19.85;;;14.25;;
26484;SDS011;18083;50.560;7.262;2023-05-23T01:35:23;24.80;;;14.60;;
26484;SDS011;18083;50.560;7.262;2023-05-23T01:37:57;22.55;;;15.43;;
26484;SDS011;18083;50.560;7.262;2023-05-23T01:40:22;24.80;;;16.67;;
26484;SDS011;18083;50.560;7.262;2023-05-23T01:42:50;30.32;;;16.48;;
26484;SDS011;18083;50.560;7.262;2023-05-23T01:45:17;25.80;;;17.62;;
26484;SDS011;18083;50.560;7.262;2023-05-23T01:47:47;25.88;;;16.52;;
26484;SDS011;18083;50.560;7.262;2023-05-23T01:50:15;28.62;;;19.95;;
26484;SDS011;18083;50.560;7.262;2023-05-23T01:52:42;24.70;;;17.30;;
26484;SDS011;18083;50.560;7.262;2023-05-23T01:55:10;29.05;;;16.85;;
26484;SDS011;18083;50.560;7.262;2023-05-23T01:57:39;25.10;;;18.40;;
26484;SDS011;18083;50.560;7.262;2023-05-23T02:00:06;34.30;;;17.75;;
26484;SDS011;18083;50.560;7.262;2023-05-23T02:02:35;25.52;;;17.00;;
26484;SDS011;18083;50.560;7.262;2023-05-23T02:05:03;28.00;;;17.05;;
26484;SDS011;18083;50.560;7.262;2023-05-23T02:07:30;25.32;;;16.10;;
26484;SDS011;18083;50.560;7.262;2023-05-23T02:09:58;18.05;;;12.95;;
26484;SDS011;18083;50.560;7.262;2023-05-23T02:12:25;24.75;;;15.30;;
26484;SDS011;18083;50.560;7.262;2023-05-23T02:14:52;19.00;;;14.40;;
26484;SDS011;18083;50.560;7.262;2023-05-23T02:17:20;24.35;;;14.13;;
26484;SDS011;18083;50.560;7.262;2023-05-23T02:19:49;22.65;;;13.98;;
26484;SDS011;18083;50.560;7.262;2023-05-23T02:22:16;19.17;;;13.20;;
26484;SDS011;18083;50.560;7.262;2023-05-23T02:24:43;19.80;;;14.33;;
26484;SDS011;18083;50.560;7.262;2023-05-23T02:27:11;24.52;;;16.42;;
26484;SDS011;18083;50.560;7.262;2023-05-23T02:29:38;21.75;;;14.23;;
26484;SDS011;18083;50.560;7.262;2023-05-23T02:32:05;22.87;;;15.83;;
26484;SDS011;18083;50.560;7.262;2023-05-23T02:34:33;23.07;;;14.35;;
26484;SDS011;18083;50.560;7.262;2023-05-23T02:37:00;23.60;;;14.95;;
26484;SDS011;18083;50.560;7.262;2023-05-23T02:39:27;24.47;;;14.70;;
26484;SDS011;18083;50.560;7.262;2023-05-23T02:41:55;18.57;;;13.20;;
26484;SDS011;18083;50.560;7.262;2023-05-23T02:44:22;18.77;;;14.30;;
26484;SDS011;18083;50.560;7.262;2023-05-23T02:46:49;20.72;;;14.43;;
26484;SDS011;18083;50.560;7.262;2023-05-23T02:49:16;24.18;;;14.95;;
26484;SDS011;18083;50.560;7.262;2023-05-23T02:51:44;23.10;;;14.73;;
26484;SDS011;18083;50.560;7.262;2023-05-23T02:54:11;20.35;;;12.88;;
26484;SDS011;18083;50.560;7.262;2023-05-23T02:56:38;21.37;;;13.10;;
26484;SDS011;18083;50.560;7.262;2023-05-23T02:59:05;21.60;;;14.35;;
26484;SDS011;18083;50.560;7.262;2023-05-23T03:01:33;18.32;;;13.00;;
26484;SDS011;18083;50.560;7.262;2023-05-23T03:04:00;21.97;;;14.00;;
26484;SDS011;18083;50.560;7.262;2023-05-23T03:06:27;16.97;;;12.60;;
26484;SDS011;18083;50.560;7.262;2023-05-23T03:08:56;18.65;;;12.80;;
26484;SDS011;18083;50.560;7.262;2023-05-23T03:11:23;17.35;;;11.12;;
26484;SDS011;18083;50.560;7.262;2023-05-23T03:13:51;18.65;;;10.75;;
26484;SDS011;18083;50.560;7.262;2023-05-23T03:16:18;14.50;;;9.25;;
26484;SDS011;18083;50.560;7.262;2023-05-23T03:18:45;13.03;;;9.40;;
26484;SDS011;18083;50.560;7.262;2023-05-23T03:21:12;9.93;;;7.62;;
26484;SDS011;18083;50.560;7.262;2023-05-23T03:23:40;9.65;;;6.50;;
26484;SDS011;18083;50.560;7.262;2023-05-23T03:26:07;9.78;;;6.65;;
26484;SDS011;18083;50.560;7.262;2023-05-23T03:28:34;8.20;;;5.25;;
26484;SDS011;18083;50.560;7.262;2023-05-23T03:31:02;7.60;;;5.67;;
26484;SDS011;18083;50.560;7.262;2023-05-23T03:33:29;8.40;;;5.95;;
26484;SDS011;18083;50.560;7.262;2023-05-23T03:35:56;10.82;;;6.08;;
26484;SDS011;18083;50.560;7.262;2023-05-23T03:38:23;6.35;;;5.22;;
26484;SDS011;18083;50.560;7.262;2023-05-23T03:40:51;7.40;;;4.78;;
26484;SDS011;18083;50.560;7.262;2023-05-23T03:43:19;6.90;;;5.20;;
26484;SDS011;18083;50.560;7.262;2023-05-23T03:45:46;10.48;;;5.08;;
26484;SDS011;18083;50.560;7.262;2023-05-23T03:48:13;7.45;;;3.95;;
26484;SDS011;18083;50.560;7.262;2023-05-23T03:50:41;6.20;;;4.90;;
26484;SDS011;18083;50.560;7.262;2023-05-23T03:53:08;9.60;;;5.08;;
26484;SDS011;18083;50.560;7.262;2023-05-23T03:55:35;5.87;;;4.95;;
26484;SDS011;18083;50.560;7.262;2023-05-23T03:58:03;6.60;;;4.40;;
26484;SDS011;18083;50.560;7.262;2023-05-23T04:00:30;5.50;;;4.62;;
26484;SDS011;18083;50.560;7.262;2023-05-23T04:02:57;6.60;;;5.00;;
26484;SDS011;18083;50.560;7.262;2023-05-23T04:05:25;4.20;;;3.80;;
26484;SDS011;18083;50.560;7.262;2023-05-23T04:07:52;4.95;;;4.50;;
26484;SDS011;18083;50.560;7.262;2023-05-23T04:10:19;8.65;;;4.95;;
26484;SDS011;18083;50.560;7.262;2023-05-23T04:12:47;5.92;;;5.33;;
26484;SDS011;18083;50.560;7.262;2023-05-23T04:15:14;6.80;;;5.30;;
26484;SDS011;18083;50.560;7.262;2023-05-23T04:17:43;8.75;;;6.15;;
26484;SDS011;18083;50.560;7.262;2023-05-23T04:20:10;9.58;;;6.97;;
26484;SDS011;18083;50.560;7.262;2023-05-23T04:22:38;9.28;;;6.92;;
26484;SDS011;18083;50.560;7.262;2023-05-23T04:25:05;8.80;;;7.22;;
26484;SDS011;18083;50.560;7.262;2023-05-23T04:27:32;12.13;;;7.92;;
26484;SDS011;18083;50.560;7.262;2023-05-23T04:30:00;12.95;;;8.50;;
26484;SDS011;18083;50.560;7.262;2023-05-23T04:32:27;11.75;;;7.78;;
26484;SDS011;18083;50.560;7.262;2023-05-23T04:34:54;10.25;;;8.53;;
26484;SDS011;18083;50.560;7.262;2023-05-23T04:37:21;11.38;;;7.12;;
26484;SDS011;18083;50.560;7.262;2023-05-23T04:39:51;14.85;;;8.50;;
26484;SDS011;18083;50.560;7.262;2023-05-23T04:42:18;11.38;;;8.05;;
26484;SDS011;18083;50.560;7.262;2023-05-23T04:44:47;15.83;;;8.10;;
26484;SDS011;18083;50.560;7.262;2023-05-23T04:47:15;16.65;;;9.30;;
26484;SDS011;18083;50.560;7.262;2023-05-23T04:49:42;15.58;;;9.08;;
26484;SDS011;18083;50.560;7.262;2023-05-23T04:52:10;11.08;;;9.73;;
26484;SDS011;18083;50.560;7.262;2023-05-23T04:54:37;12.13;;;7.80;;
26484;SDS011;18083;50.560;7.262;2023-05-23T04:57:06;13.00;;;9.18;;
26484;SDS011;18083;50.560;7.262;2023-05-23T04:59:33;15.18;;;9.25;;
26484;SDS011;18083;50.560;7.262;2023-05-23T05:02:00;10.70;;;8.05;;
26484;SDS011;18083;50.560;7.262;2023-05-23T05:04:28;12.18;;;8.38;;
26484;SDS011;18083;50.560;7.262;2023-05-23T05:06:55;12.07;;;8.63;;
26484;SDS011;18083;50.560;7.262;2023-05-23T05:09:22;17.40;;;10.38;;
26484;SDS011;18083;50.560;7.262;2023-05-23T05:11:51;13.32;;;8.58;;
26484;SDS011;18083;50.560;7.262;2023-05-23T05:14:18;12.50;;;8.53;;
26484;SDS011;18083;50.560;7.262;2023-05-23T05:16:45;14.13;;;8.80;;
26484;SDS011;18083;50.560;7.262;2023-05-23T05:19:13;11.10;;;9.28;;
26484;SDS011;18083;50.560;7.262;2023-05-23T05:21:41;12.20;;;8.88;;
26484;SDS011;18083;50.560;7.262;2023-05-23T05:24:08;10.45;;;8.65;;
26484;SDS011;18083;50.560;7.262;2023-05-23T05:26:36;18.48;;;9.28;;
26484;SDS011;18083;50.560;7.262;2023-05-23T05:29:03;15.40;;;11.53;;
26484;SDS011;18083;50.560;7.262;2023-05-23T05:31:31;10.23;;;8.68;;
26484;SDS011;18083;50.560;7.262;2023-05-23T05:33:58;12.60;;;8.93;;
26484;SDS011;18083;50.560;7.262;2023-05-23T05:36:25;12.75;;;9.40;;
26484;SDS011;18083;50.560;7.262;2023-05-23T05:38:52;16.75;;;10.98;;
26484;SDS011;18083;50.560;7.262;2023-05-23T05:49:41;19.30;;;12.55;;
26484;SDS011;18083;50.560;7.262;2023-05-23T05:52:25;18.55;;;13.98;;
26484;SDS011;18083;50.560;7.262;2023-05-23T05:55:02;23.00;;;15.10;;
26484;SDS011;18083;50.560;7.262;2023-05-23T06:00:31;21.57;;;16.25;;
26484;SDS011;18083;50.560;7.262;2023-05-23T06:17:57;20.23;;;14.73;;
26484;SDS011;18083;50.560;7.262;2023-05-23T06:20:25;16.62;;;14.38;;
26484;SDS011;18083;50.560;7.262;2023-05-23T06:22:52;22.80;;;14.68;;
26484;SDS011;18083;50.560;7.262;2023-05-23T06:25:19;19.95;;;14.55;;
26484;SDS011;18083;50.560;7.262;2023-05-23T06:27:46;23.55;;;16.80;;
26484;SDS011;18083;50.560;7.262;2023-05-23T06:30:24;22.10;;;15.30;;
26484;SDS011;18083;50.560;7.262;2023-05-23T06:32:53;23.00;;;13.90;;
26484;SDS011;18083;50.560;7.262;2023-05-23T06:37:55;18.65;;;15.28;;
26484;SDS011;18083;50.560;7.262;2023-05-23T06:40:34;17.45;;;13.45;;
26484;SDS011;18083;50.560;7.262;2023-05-23T06:42:54;20.82;;;14.50;;
26484;SDS011;18083;50.560;7.262;2023-05-23T06:45:24;19.00;;;13.55;;
26484;SDS011;18083;50.560;7.262;2023-05-23T06:50:50;26.68;;;15.30;;
26484;SDS011;18083;50.560;7.262;2023-05-23T06:53:19;25.12;;;14.30;;
26484;SDS011;18083;50.560;7.262;2023-05-23T06:58:25;20.48;;;13.95;;
26484;SDS011;18083;50.560;7.262;2023-05-23T07:01:04;18.65;;;12.68;;
26484;SDS011;18083;50.560;7.262;2023-05-23T07:11:59;19.45;;;13.83;;
26484;SDS011;18083;50.560;7.262;2023-05-23T07:14:34;17.98;;;13.45;;
26484;SDS011;18083;50.560;7.262;2023-05-23T07:17:02;21.60;;;14.23;;
26484;SDS011;18083;50.560;7.262;2023-05-23T07:22:43;21.70;;;14.05;;
26484;SDS011;18083;50.560;7.262;2023-05-23T07:36:09;20.57;;;13.62;;
26484;SDS011;18083;50.560;7.262;2023-05-23T07:38:46;21.27;;;14.25;;
26484;SDS011;18083;50.560;7.262;2023-05-23T07:44:12;23.95;;;11.97;;
26484;SDS011;18083;50.560;7.262;2023-05-23T07:46:41;18.15;;;13.00;;
26484;SDS011;18083;50.560;7.262;2023-05-23T07:49:08;22.02;;;12.88;;
26484;SDS011;18083;50.560;7.262;2023-05-23T07:51:35;20.85;;;12.73;;
26484;SDS011;18083;50.560;7.262;2023-05-23T07:54:03;19.20;;;12.58;;
26484;SDS011;18083;50.560;7.262;2023-05-23T07:56:30;21.45;;;12.70;;
26484;SDS011;18083;50.560;7.262;2023-05-23T07:58:57;15.50;;;12.33;;
26484;SDS011;18083;50.560;7.262;2023-05-23T08:01:26;20.82;;;12.25;;
26484;SDS011;18083;50.560;7.262;2023-05-23T08:03:53;17.80;;;12.40;;
26484;SDS011;18083;50.560;7.262;2023-05-23T08:06:21;25.00;;;12.75;;
26484;SDS011;18083;50.560;7.262;2023-05-23T08:08:48;18.82;;;13.05;;
26484;SDS011;18083;50.560;7.262;2023-05-23T08:11:21;21.87;;;14.55;;
26484;SDS011;18083;50.560;7.262;2023-05-23T08:13:53;18.32;;;13.38;;
26484;SDS011;18083;50.560;7.262;2023-05-23T08:16:40;23.77;;;15.93;;
26484;SDS011;18083;50.560;7.262;2023-05-23T08:19:08;21.75;;;14.63;;
26484;SDS011;18083;50.560;7.262;2023-05-23T08:21:39;20.85;;;14.53;;
26484;SDS011;18083;50.560;7.262;2023-05-23T08:24:12;19.85;;;14.15;;
26484;SDS011;18083;50.560;7.262;2023-05-23T08:37:46;14.50;;;11.95;;
26484;SDS011;18083;50.560;7.262;2023-05-23T08:40:41;20.80;;;12.95;;
26484;SDS011;18083;50.560;7.262;2023-05-23T08:45:52;14.83;;;10.38;;
26484;SDS011;18083;50.560;7.262;2023-05-23T08:57:20;14.05;;;8.53;;
26484;SDS011;18083;50.560;7.262;2023-05-23T08:59:50;12.35;;;7.67;;
26484;SDS011;18083;50.560;7.262;2023-05-23T09:02:18;12.13;;;6.83;;
26484;SDS011;18083;50.560;7.262;2023-05-23T09:04:45;10.45;;;7.75;;
26484;SDS011;18083;50.560;7.262;2023-05-23T09:07:12;12.80;;;7.53;;
26484;SDS011;18083;50.560;7.262;2023-05-23T09:09:42;11.35;;;8.00;;
26484;SDS011;18083;50.560;7.262;2023-05-23T09:23:35;15.08;;;8.83;;
26484;SDS011;18083;50.560;7.262;2023-05-23T09:28:55;14.20;;;7.78;;
26484;SDS011;18083;50.560;7.262;2023-05-23T09:31:25;11.97;;;7.58;;
26484;SDS011;18083;50.560;7.262;2023-05-23T09:33:50;10.58;;;7.55;;
26484;SDS011;18083;50.560;7.262;2023-05-23T09:36:16;18.02;;;7.08;;
26484;SDS011;18083;50.560;7.262;2023-05-23T09:38:55;14.28;;;8.35;;
26484;SDS011;18083;50.560;7.262;2023-05-23T09:47:27;12.40;;;8.35;;
26484;SDS011;18083;50.560;7.262;2023-05-23T09:58:14;10.40;;;7.67;;
26484;SDS011;18083;50.560;7.262;2023-05-23T10:00:58;10.15;;;7.70;;
26484;SDS011;18083;50.560;7.262;2023-05-23T10:09:12;16.85;;;11.70;;
26484;SDS011;18083;50.560;7.262;2023-05-23T10:23:11;15.72;;;12.07;;
26484;SDS011;18083;50.560;7.262;2023-05-23T10:25:42;16.02;;;12.30;;
26484;SDS011;18083;50.560;7.262;2023-05-23T10:28:19;18.98;;;10.95;;
26484;SDS011;18083;50.560;7.262;2023-05-23T10:30:51;19.92;;;11.43;;
26484;SDS011;18083;50.560;7.262;2023-05-23T10:33:34;16.77;;;10.98;;
26484;SDS011;18083;50.560;7.262;2023-05-23T10:39:16;14.00;;;10.35;;
26484;SDS011;18083;50.560;7.262;2023-05-23T10:44:37;22.32;;;12.35;;
26484;SDS011;18083;50.560;7.262;2023-05-23T10:59:07;16.00;;;11.00;;
26484;SDS011;18083;50.560;7.262;2023-05-23T11:04:48;17.45;;;10.78;;
26484;SDS011;18083;50.560;7.262;2023-05-23T11:15:59;15.40;;;11.85;;
26484;SDS011;18083;50.560;7.262;2023-05-23T11:21:15;13.40;;;10.48;;
26484;SDS011;18083;50.560;7.262;2023-05-23T11:29:27;23.20;;;11.40;;
26484;SDS011;18083;50.560;7.262;2023-05-23T11:34:46;20.60;;;11.50;;
26484;SDS011;18083;50.560;7.262;2023-05-23T11:40:38;18.42;;;11.22;;
26484;SDS011;18083;50.560;7.262;2023-05-23T11:48:58;19.70;;;10.13;;
26484;SDS011;18083;50.560;7.262;2023-05-23T11:57:08;19.00;;;11.00;;
26484;SDS011;18083;50.560;7.262;2023-05-23T12:02:39;14.70;;;10.95;;
26484;SDS011;18083;50.560;7.262;2023-05-23T12:08:16;18.02;;;9.68;;
26484;SDS011;18083;50.560;7.262;2023-05-23T12:13:51;15.88;;;10.35;;
26484;SDS011;18083;50.560;7.262;2023-05-23T12:19:22;21.52;;;11.50;;
26484;SDS011;18083;50.560;7.262;2023-05-23T12:21:49;19.52;;;11.45;;
26484;SDS011;18083;50.560;7.262;2023-05-23T12:24:28;16.32;;;11.33;;
26484;SDS011;18083;50.560;7.262;2023-05-23T12:29:48;16.12;;;11.22;;
26484;SDS011;18083;50.560;7.262;2023-05-23T12:32:08;15.63;;;9.33;;
26484;SDS011;18083;50.560;7.262;2023-05-23T12:34:57;14.15;;;9.60;;
26484;SDS011;18083;50.560;7.262;2023-05-23T12:43:09;12.82;;;9.00;;
26484;SDS011;18083;50.560;7.262;2023-05-23T12:45:45;11.90;;;9.43;;
26484;SDS011;18083;50.560;7.262;2023-05-23T13:11:20;22.25;;;14.38;;
26484;SDS011;18083;50.560;7.262;2023-05-23T13:14:11;22.85;;;14.87;;
26484;SDS011;18083;50.560;7.262;2023-05-23T13:16:34;22.82;;;15.53;;
26484;SDS011;18083;50.560;7.262;2023-05-23T13:22:03;24.37;;;12.43;;
26484;SDS011;18083;50.560;7.262;2023-05-23T13:30:25;12.65;;;10.53;;
26484;SDS011;18083;50.560;7.262;2023-05-23T13:35:52;20.17;;;12.07;;
26484;SDS011;18083;50.560;7.262;2023-05-23T13:38:21;15.98;;;11.40;;
26484;SDS011;18083;50.560;7.262;2023-05-23T13:46:52;24.43;;;16.05;;
26484;SDS011;18083;50.560;7.262;2023-05-23T13:57:45;18.42;;;14.55;;
26484;SDS011;18083;50.560;7.262;2023-05-23T14:03:03;32.30;;;17.02;;
26484;SDS011;18083;50.560;7.262;2023-05-23T14:05:50;21.57;;;16.27;;
26484;SDS011;18083;50.560;7.262;2023-05-23T14:08:32;20.80;;;17.77;;
26484;SDS011;18083;50.560;7.262;2023-05-23T14:11:12;22.22;;;16.65;;
26484;SDS011;18083;50.560;7.262;2023-05-23T14:13:57;23.40;;;15.30;;
26484;SDS011;18083;50.560;7.262;2023-05-23T14:16:38;20.80;;;15.55;;
26484;SDS011;18083;50.560;7.262;2023-05-23T14:19:08;19.02;;;15.45;;
26484;SDS011;18083;50.560;7.262;2023-05-23T14:24:14;19.02;;;14.63;;
26484;SDS011;18083;50.560;7.262;2023-05-23T14:29:21;25.00;;;15.75;;
26484;SDS011;18083;50.560;7.262;2023-05-23T14:37:25;21.52;;;14.93;;
26484;SDS011;18083;50.560;7.262;2023-05-23T14:40:15;14.18;;;11.78;;
26484;SDS011;18083;50.560;7.262;2023-05-23T14:45:42;17.45;;;13.18;;
26484;SDS011;18083;50.560;7.262;2023-05-23T14:48:09;19.50;;;14.47;;
26484;SDS011;18083;50.560;7.262;2023-05-23T14:50:37;17.57;;;13.80;;
26484;SDS011;18083;50.560;7.262;2023-05-23T14:53:04;23.15;;;15.93;;
26484;SDS011;18083;50.560;7.262;2023-05-23T14:55:31;16.45;;;13.93;;
26484;SDS011;18083;50.560;7.262;2023-05-23T14:58:01;17.30;;;14.00;;
26484;SDS011;18083;50.560;7.262;2023-05-23T15:00:28;16.87;;;11.97;;
26484;SDS011;18083;50.560;7.262;2023-05-23T15:02:56;14.53;;;9.48;;
26484;SDS011;18083;50.560;7.262;2023-05-23T15:05:23;11.25;;;9.15;;
26484;SDS011;18083;50.560;7.262;2023-05-23T15:07:50;15.08;;;11.33;;
26484;SDS011;18083;50.560;7.262;2023-05-23T15:10:18;13.15;;;10.35;;
26484;SDS011;18083;50.560;7.262;2023-05-23T15:12:46;13.70;;;12.03;;
26484;SDS011;18083;50.560;7.262;2023-05-23T15:15:13;17.30;;;15.50;;
26484;SDS011;18083;50.560;7.262;2023-05-23T15:17:42;11.28;;;9.88;;
26484;SDS011;18083;50.560;7.262;2023-05-23T15:20:10;12.03;;;8.53;;
26484;SDS011;18083;50.560;7.262;2023-05-23T15:22:37;12.58;;;8.53;;
26484;SDS011;18083;50.560;7.262;2023-05-23T15:25:05;11.15;;;8.35;;
26484;SDS011;18083;50.560;7.262;2023-05-23T15:27:32;12.28;;;6.62;;
26484;SDS011;18083;50.560;7.262;2023-05-23T15:30:00;11.38;;;9.78;;
26484;SDS011;18083;50.560;7.262;2023-05-23T15:32:27;15.30;;;8.83;;
26484;SDS011;18083;50.560;7.262;2023-05-23T15:34:54;12.88;;;9.83;;
26484;SDS011;18083;50.560;7.262;2023-05-23T15:37:22;11.68;;;8.20;;
26484;SDS011;18083;50.560;7.262;2023-05-23T15:39:49;13.93;;;9.35;;
26484;SDS011;18083;50.560;7.262;2023-05-23T15:42:16;10.05;;;7.90;;
26484;SDS011;18083;50.560;7.262;2023-05-23T15:44:44;14.98;;;8.08;;
26484;SDS011;18083;50.560;7.262;2023-05-23T15:47:11;12.18;;;8.13;;
26484;SDS011;18083;50.560;7.262;2023-05-23T15:49:38;14.90;;;7.62;;
26484;SDS011;18083;50.560;7.262;2023-05-23T15:52:06;10.82;;;7.62;;
26484;SDS011;18083;50.560;7.262;2023-05-23T15:54:33;10.93;;;6.85;;
26484;SDS011;18083;50.560;7.262;2023-05-23T15:57:00;13.70;;;7.60;;
26484;SDS011;18083;50.560;7.262;2023-05-23T15:59:27;11.22;;;9.50;;
26484;SDS011;18083;50.560;7.262;2023-05-23T16:01:56;17.12;;;12.43;;
26484;SDS011;18083;50.560;7.262;2023-05-23T16:04:24;14.80;;;12.70;;
26484;SDS011;18083;50.560;7.262;2023-05-23T16:06:51;16.00;;;14.13;;
26484;SDS011;18083;50.560;7.262;2023-05-23T16:09:18;15.90;;;13.58;;
26484;SDS011;18083;50.560;7.262;2023-05-23T16:11:45;15.30;;;13.80;;
26484;SDS011;18083;50.560;7.262;2023-05-23T16:14:13;16.42;;;14.03;;
26484;SDS011;18083;50.560;7.262;2023-05-23T16:16:40;18.35;;;14.65;;
26484;SDS011;18083;50.560;7.262;2023-05-23T16:19:08;33.38;;;18.40;;
26484;SDS011;18083;50.560;7.262;2023-05-23T16:21:35;16.25;;;13.80;;
26484;SDS011;18083;50.560;7.262;2023-05-23T16:24:03;17.20;;;12.98;;
26484;SDS011;18083;50.560;7.262;2023-05-23T16:26:30;14.55;;;12.20;;
26484;SDS011;18083;50.560;7.262;2023-05-23T16:28:58;17.62;;;14.47;;
26484;SDS011;18083;50.560;7.262;2023-05-23T16:31:26;18.48;;;13.68;;
26484;SDS011;18083;50.560;7.262;2023-05-23T16:33:53;12.90;;;11.35;;
26484;SDS011;18083;50.560;7.262;2023-05-23T16:36:21;15.65;;;11.43;;
26484;SDS011;18083;50.560;7.262;2023-05-23T16:38:49;14.75;;;11.73;;
26484;SDS011;18083;50.560;7.262;2023-05-23T16:41:16;24.92;;;14.90;;
26484;SDS011;18083;50.560;7.262;2023-05-23T16:43:43;14.90;;;13.48;;
26484;SDS011;18083;50.560;7.262;2023-05-23T16:46:11;15.98;;;13.78;;
26484;SDS011;18083;50.560;7.262;2023-05-23T16:48:38;15.08;;;13.00;;
26484;SDS011;18083;50.560;7.262;2023-05-23T16:51:05;18.95;;;13.18;;
26484;SDS011;18083;50.560;7.262;2023-05-23T16:53:32;18.80;;;12.75;;
26484;SDS011;18083;50.560;7.262;2023-05-23T16:56:02;17.77;;;11.48;;
26484;SDS011;18083;50.560;7.262;2023-05-23T16:58:30;13.72;;;11.65;;
26484;SDS011;18083;50.560;7.262;2023-05-23T17:00:59;14.95;;;12.40;;
26484;SDS011;18083;50.560;7.262;2023-05-23T17:03:26;17.12;;;13.65;;
26484;SDS011;18083;50.560;7.262;2023-05-23T17:05:54;18.57;;;13.60;;
26484;SDS011;18083;50.560;7.262;2023-05-23T17:08:21;22.50;;;13.53;;
26484;SDS011;18083;50.560;7.262;2023-05-23T17:10:49;14.33;;;12.25;;
26484;SDS011;18083;50.560;7.262;2023-05-23T17:13:18;15.38;;;11.43;;
26484;SDS011;18083;50.560;7.262;2023-05-23T17:15:45;15.80;;;10.93;;
26484;SDS011;18083;50.560;7.262;2023-05-23T17:18:13;17.98;;;12.18;;
26484;SDS011;18083;50.560;7.262;2023-05-23T17:20:40;17.75;;;12.15;;
26484;SDS011;18083;50.560;7.262;2023-05-23T17:23:07;17.30;;;12.23;;
26484;SDS011;18083;50.560;7.262;2023-05-23T17:25:36;17.27;;;13.30;;
26484;SDS011;18083;50.560;7.262;2023-05-23T17:28:04;18.35;;;12.78;;
26484;SDS011;18083;50.560;7.262;2023-05-23T17:30:31;14.98;;;13.30;;
26484;SDS011;18083;50.560;7.262;2023-05-23T17:32:58;18.92;;;13.65;;
26484;SDS011;18083;50.560;7.262;2023-05-23T17:35:27;17.55;;;12.93;;
26484;SDS011;18083;50.560;7.262;2023-05-23T17:37:54;17.87;;;11.80;;
26484;SDS011;18083;50.560;7.262;2023-05-23T17:40:26;13.25;;;11.50;;
26484;SDS011;18083;50.560;7.262;2023-05-23T17:42:54;16.23;;;12.15;;
26484;SDS011;18083;50.560;7.262;2023-05-23T17:45:21;13.70;;;12.03;;
26484;SDS011;18083;50.560;7.262;2023-05-23T17:47:49;18.10;;;11.60;;
26484;SDS011;18083;50.560;7.262;2023-05-23T17:50:16;15.50;;;12.35;;
26484;SDS011;18083;50.560;7.262;2023-05-23T17:52:43;14.38;;;10.98;;
26484;SDS011;18083;50.560;7.262;2023-05-23T17:55:10;12.35;;;10.70;;
26484;SDS011;18083;50.560;7.262;2023-05-23T17:57:38;16.23;;;11.00;;
26484;SDS011;18083;50.560;7.262;2023-05-23T18:02:36;13.08;;;11.12;;
26484;SDS011;18083;50.560;7.262;2023-05-23T18:05:04;15.72;;;12.33;;
26484;SDS011;18083;50.560;7.262;2023-05-23T18:07:32;17.42;;;11.97;;
26484;SDS011;18083;50.560;7.262;2023-05-23T18:10:01;17.25;;;10.63;;
26484;SDS011;18083;50.560;7.262;2023-05-23T18:12:28;13.00;;;10.43;;
26484;SDS011;18083;50.560;7.262;2023-05-23T18:14:55;26.80;;;11.53;;
26484;SDS011;18083;50.560;7.262;2023-05-23T18:17:23;28.62;;;11.97;;
26484;SDS011;18083;50.560;7.262;2023-05-23T18:19:59;13.83;;;10.45;;
26484;SDS011;18083;50.560;7.262;2023-05-23T18:22:29;15.45;;;9.88;;
26484;SDS011;18083;50.560;7.262;2023-05-23T18:24:58;15.53;;;11.00;;
26484;SDS011;18083;50.560;7.262;2023-05-23T18:27:26;13.78;;;8.78;;
26484;SDS011;18083;50.560;7.262;2023-05-23T18:29:54;12.05;;;8.98;;
26484;SDS011;18083;50.560;7.262;2023-05-23T18:32:22;16.70;;;9.38;;
26484;SDS011;18083;50.560;7.262;2023-05-23T18:34:49;12.07;;;8.13;;
26484;SDS011;18083;50.560;7.262;2023-05-23T18:37:17;9.18;;;7.58;;
26484;SDS011;18083;50.560;7.262;2023-05-23T18:39:44;16.40;;;7.83;;
26484;SDS011;18083;50.560;7.262;2023-05-23T18:42:12;14.18;;;8.50;;
26484;SDS011;18083;50.560;7.262;2023-05-23T18:44:39;11.85;;;7.62;;
26484;SDS011;18083;50.560;7.262;2023-05-23T18:47:07;12.95;;;6.95;;
26484;SDS011;18083;50.560;7.262;2023-05-23T18:49:34;7.87;;;5.58;;
26484;SDS011;18083;50.560;7.262;2023-05-23T18:52:03;18.05;;;5.35;;
26484;SDS011;18083;50.560;7.262;2023-05-23T18:54:31;18.85;;;6.10;;
26484;SDS011;18083;50.560;7.262;2023-05-23T18:56:58;13.93;;;5.37;;
26484;SDS011;18083;50.560;7.262;2023-05-23T18:59:26;12.37;;;4.90;;
26484;SDS011;18083;50.560;7.262;2023-05-23T19:01:53;12.55;;;4.10;;
26484;SDS011;18083;50.560;7.262;2023-05-23T19:04:22;8.55;;;4.50;;
26484;SDS011;18083;50.560;7.262;2023-05-23T19:06:50;8.20;;;3.58;;
26484;SDS011;18083;50.560;7.262;2023-05-23T19:09:17;11.78;;;4.15;;
26484;SDS011;18083;50.560;7.262;2023-05-23T19:11:45;13.10;;;4.30;;
26484;SDS011;18083;50.560;7.262;2023-05-23T19:14:12;9.95;;;4.53;;